Time;durP1;ratioP1;P1;durP2;ratioP2;P2;SDS_P1;SDS_P2;PMS_P1;PMS_P2;Temp;Humidity;BMP_temperature;BMP_pressure;BME280_temperature;BME280_humidity;BME280_pressure;Samples;Min_cycle;Max_cycle;Signal;HPM_P1;HPM_P2
2023/08/10 00:00:47;;;;;;;6.78;2.10;;;;;;;15.11;74.15;102038.13;7394488;19;20025;-58
2023/08/10 00:03:17;;;;;;;8.70;2.13;;;;;;;15.10;73.90;102042.59;7396084;19;20039;-59
2023/08/10 00:05:45;;;;;;;7.35;2.30;;;;;;;15.22;73.31;102040.84;7393558;19;20551;-58
2023/08/10 00:08:13;;;;;;;5.10;2.00;;;;;;;15.28;73.02;102036.88;7395495;19;20034;-59
2023/08/10 00:10:40;;;;;;;7.00;2.45;;;;;;;15.36;72.69;102037.19;7396285;19;20361;-59
2023/08/10 00:13:08;;;;;;;8.32;2.00;;;;;;;15.44;72.20;102031.28;7396068;19;20044;-59
2023/08/10 00:15:36;;;;;;;7.15;1.90;;;;;;;15.36;72.14;102030.00;7395560;19;20040;-59
2023/08/10 00:18:04;;;;;;;8.68;1.77;;;;;;;15.29;72.43;102042.09;7396473;19;20499;-58
2023/08/10 00:20:31;;;;;;;5.07;1.80;;;;;;;15.19;72.76;102043.75;7395569;19;20483;-60
2023/08/10 00:22:59;;;;;;;4.53;1.77;;;;;;;15.17;72.53;102040.34;7395419;19;20015;-59
2023/08/10 00:25:26;;;;;;;5.95;2.08;;;;;;;15.14;72.64;102043.22;7394402;19;20365;-59
2023/08/10 00:27:55;;;;;;;8.07;1.92;;;;;;;15.30;72.01;102041.16;7393273;19;20018;-60
2023/08/10 00:30:23;;;;;;;9.02;2.22;;;;;;;15.33;71.83;102040.91;7392914;19;20387;-59
2023/08/10 00:32:51;;;;;;;8.43;1.83;;;;;;;15.28;71.97;102043.06;7394077;19;20018;-60
2023/08/10 00:35:18;;;;;;;7.25;1.90;;;;;;;15.31;71.97;102039.34;7394687;19;20014;-58
2023/08/10 00:37:46;;;;;;;7.50;1.70;;;;;;;15.27;72.09;102041.38;7392528;19;20026;-60
2023/08/10 00:40:13;;;;;;;8.48;2.25;;;;;;;15.27;72.12;102045.88;7395402;19;20047;-60
2023/08/10 00:42:41;;;;;;;5.63;1.80;;;;;;;15.30;72.44;102045.63;7395715;19;20018;-61
2023/08/10 00:45:09;;;;;;;8.13;2.00;;;;;;;15.12;73.70;102055.84;7393277;19;20018;-61
2023/08/10 00:47:37;;;;;;;7.30;2.00;;;;;;;15.02;74.18;102050.28;7390711;19;20043;-61
2023/08/10 00:50:05;;;;;;;7.53;1.83;;;;;;;15.10;73.47;102050.59;7395191;19;20025;-61
2023/08/10 00:52:33;;;;;;;6.53;2.03;;;;;;;14.87;74.18;102046.91;7394321;19;20496;-61
2023/08/10 00:55:01;;;;;;;4.22;1.70;;;;;;;14.77;74.88;102045.03;7394593;19;20099;-62
2023/08/10 00:57:29;;;;;;;8.55;2.00;;;;;;;14.73;75.11;102057.72;7390464;19;20354;-62
2023/08/10 00:59:58;;;;;;;9.45;2.15;;;;;;;14.78;74.90;102052.06;7393430;19;20015;-60
2023/08/10 01:02:25;;;;;;;5.57;2.03;;;;;;;15.02;73.87;102060.13;7393964;19;20545;-62
2023/08/10 01:04:53;;;;;;;6.82;1.90;;;;;;;15.28;72.63;102069.75;7394808;19;20018;-62
2023/08/10 01:08:00;;;;;;;7.00;2.15;;;;;;;15.39;71.71;102054.78;7392184;19;20029;-63
2023/08/10 01:10:41;;;;;;;7.95;2.13;;;;;;;15.30;72.20;102062.50;7392713;19;20074;-61
2023/08/10 01:13:31;;;;;;;7.53;2.40;;;;;;;15.36;72.08;102063.88;7393988;19;20022;-60
2023/08/10 01:16:05;;;;;;;6.00;2.15;;;;;;;15.27;72.26;102065.41;7392726;19;20551;-61
2023/08/10 01:18:33;;;;;;;6.50;2.50;;;;;;;15.13;73.06;102072.69;7398408;19;20035;-62
2023/08/10 01:21:10;;;;;;;8.13;2.65;;;;;;;15.23;72.53;102073.75;7393671;19;20071;-63
2023/08/10 01:23:41;;;;;;;7.97;2.40;;;;;;;15.17;72.78;102071.50;7394173;19;20039;-62
2023/08/10 01:26:10;;;;;;;8.68;2.80;;;;;;;15.10;72.82;102082.59;7392338;19;20019;-62
2023/08/10 01:28:38;;;;;;;6.07;2.53;;;;;;;15.08;72.96;102073.03;7393818;19;20014;-60
2023/08/10 01:31:06;;;;;;;7.25;2.17;;;;;;;15.09;73.03;102074.72;7393354;19;20093;-62
2023/08/10 01:33:34;;;;;;;6.22;2.40;;;;;;;15.02;73.12;102081.47;7393911;19;20027;-62
2023/08/10 01:36:02;;;;;;;9.48;2.45;;;;;;;14.92;73.48;102075.06;7392117;19;20495;-62
2023/08/10 01:38:30;;;;;;;5.85;2.40;;;;;;;14.97;73.55;102081.78;7391977;19;20047;-62
2023/08/10 01:40:57;;;;;;;7.78;2.72;;;;;;;14.93;73.61;102079.47;7391629;19;20023;-59
2023/08/10 01:43:24;;;;;;;5.45;2.20;;;;;;;14.94;73.55;102078.47;7392863;19;20015;-63
2023/08/10 01:45:55;;;;;;;12.50;2.88;;;;;;;15.04;73.16;102076.88;7390507;19;20022;-62
2023/08/10 01:48:33;;;;;;;6.13;2.20;;;;;;;15.04;73.20;102080.41;7391241;19;20025;-62
2023/08/10 01:51:03;;;;;;;7.80;2.50;;;;;;;14.97;73.33;102087.13;7392647;19;20022;-59
2023/08/10 01:53:33;;;;;;;9.50;2.65;;;;;;;15.11;72.97;102078.16;7393203;19;20022;-60
2023/08/10 01:56:01;;;;;;;6.70;2.55;;;;;;;15.17;72.79;102087.50;7391786;19;20022;-63
2023/08/10 01:58:28;;;;;;;9.52;2.63;;;;;;;15.09;73.01;102080.06;7392597;19;20589;-60
2023/08/10 02:00:56;;;;;;;6.80;2.45;;;;;;;15.17;72.83;102082.19;7393379;19;20094;-62
2023/08/10 02:03:24;;;;;;;7.50;2.80;;;;;;;15.09;72.97;102077.41;7391095;19;20035;-62
2023/08/10 02:05:51;;;;;;;6.90;2.70;;;;;;;15.12;72.90;102087.84;7391420;19;20018;-64
2023/08/10 02:08:18;;;;;;;7.53;3.05;;;;;;;15.12;73.19;102085.19;7390145;19;20022;-63
2023/08/10 02:10:46;;;;;;;8.50;2.85;;;;;;;15.18;72.71;102081.22;7392579;19;20044;-60
2023/08/10 02:13:13;;;;;;;9.88;2.90;;;;;;;15.24;72.79;102083.44;7392456;19;20031;-59
2023/08/10 02:15:42;;;;;;;7.05;2.95;;;;;;;15.24;72.73;102091.47;7390991;19;20064;-58
2023/08/10 02:18:13;;;;;;;6.78;3.03;;;;;;;15.21;72.97;102083.66;7395767;19;20033;-60
2023/08/10 02:20:40;;;;;;;11.32;2.92;;;;;;;15.28;72.72;102091.13;7391400;19;20031;-62
2023/08/10 02:23:08;;;;;;;6.72;2.72;;;;;;;15.23;72.67;102098.63;7391764;19;20022;-63
2023/08/10 02:25:35;;;;;;;6.72;2.95;;;;;;;15.19;73.28;102099.81;7390620;19;20029;-62
2023/08/10 02:28:03;;;;;;;6.88;2.50;;;;;;;15.14;73.56;102091.25;7390206;19;20018;-62
2023/08/10 02:30:30;;;;;;;12.52;3.40;;;;;;;15.14;73.71;102101.91;7391323;19;20047;-58
2023/08/10 02:32:57;;;;;;;7.47;2.92;;;;;;;15.17;73.70;102096.38;7392049;19;20032;-60
2023/08/10 02:35:25;;;;;;;9.55;4.13;;;;;;;15.17;73.75;102093.69;7390716;19;20021;-59
2023/08/10 02:37:52;;;;;;;11.55;5.85;;;;;;;15.22;73.59;102086.22;7389747;19;20055;-60
2023/08/10 02:40:21;;;;;;;12.35;5.82;;;;;;;15.09;73.82;102085.41;7389462;19;20051;-59
2023/08/10 02:42:48;;;;;;;9.85;4.97;;;;;;;15.12;73.87;102087.84;7391514;19;20043;-60
2023/08/10 02:45:15;;;;;;;9.23;4.40;;;;;;;15.15;73.47;102087.63;7391081;19;20018;-57
2023/08/10 02:47:43;;;;;;;11.65;4.28;;;;;;;15.11;73.87;102087.00;7387523;19;20019;-60
2023/08/10 02:50:14;;;;;;;8.30;3.92;;;;;;;15.05;74.03;102086.59;7390630;19;20085;-59
2023/08/10 02:52:41;;;;;;;7.18;3.50;;;;;;;15.05;74.17;102079.44;7389071;19;20018;-57
2023/08/10 02:55:10;;;;;;;10.60;4.40;;;;;;;15.10;73.78;102074.59;7390225;19;20031;-57
2023/08/10 02:57:37;;;;;;;9.70;4.35;;;;;;;15.03;74.15;102084.03;7393998;19;20015;-58
2023/08/10 03:00:06;;;;;;;9.68;4.55;;;;;;;14.95;74.61;102089.03;7398954;19;20101;-58
2023/08/10 03:02:34;;;;;;;14.57;5.18;;;;;;;14.94;75.06;102084.66;7399037;19;20022;-58
2023/08/10 03:05:01;;;;;;;10.45;4.40;;;;;;;14.85;75.41;102083.50;7398327;19;20498;-56
2023/08/10 03:07:29;;;;;;;10.40;4.97;;;;;;;14.85;75.21;102078.19;7395591;19;20018;-58
2023/08/10 03:09:56;;;;;;;11.65;5.05;;;;;;;14.97;74.81;102094.28;7398083;19;20019;-58
2023/08/10 03:12:24;;;;;;;11.00;4.97;;;;;;;15.11;74.20;102096.81;7398030;19;20078;-60
2023/08/10 03:14:51;;;;;;;10.27;5.80;;;;;;;15.08;74.35;102103.22;7397990;19;20010;-60
2023/08/10 03:17:18;;;;;;;8.68;3.97;;;;;;;15.04;74.40;102095.56;7397765;19;20059;-58
2023/08/10 03:19:47;;;;;;;10.95;4.05;;;;;;;15.06;74.30;102094.47;7398397;19;20047;-59
2023/08/10 03:22:15;;;;;;;11.50;4.18;;;;;;;15.11;74.28;102092.34;7398508;19;20022;-58
2023/08/10 03:24:42;;;;;;;9.32;3.70;;;;;;;15.05;74.04;102086.59;7397887;19;20382;-60
2023/08/10 03:27:10;;;;;;;9.15;3.80;;;;;;;15.13;73.85;102086.88;7393941;19;20026;-60
2023/08/10 03:29:37;;;;;;;12.27;3.78;;;;;;;15.19;73.63;102093.63;7396132;19;20052;-58
2023/08/10 03:32:04;;;;;;;8.43;3.67;;;;;;;15.01;74.09;102095.78;7397261;19;20018;-58
2023/08/10 03:34:32;;;;;;;9.43;3.95;;;;;;;14.92;74.73;102091.94;7395646;19;20500;-58
2023/08/10 03:37:00;;;;;;;12.23;3.90;;;;;;;14.87;74.82;102089.56;7395054;19;20045;-58
2023/08/10 03:39:28;;;;;;;10.30;3.85;;;;;;;14.81;74.84;102089.19;7397903;19;20490;-58
2023/08/10 03:41:55;;;;;;;9.27;3.53;;;;;;;14.82;74.86;102090.88;7396925;19;20015;-60
2023/08/10 03:44:22;;;;;;;12.25;4.05;;;;;;;14.80;75.08;102095.44;7397192;19;20397;-57
2023/08/10 03:46:53;;;;;;;9.77;3.83;;;;;;;14.85;74.68;102096.84;7394931;19;20035;-59
2023/08/10 03:49:22;;;;;;;9.55;4.10;;;;;;;14.74;74.89;102107.41;7397390;19;20035;-58
2023/08/10 03:51:51;;;;;;;8.38;3.78;;;;;;;14.71;75.30;102118.28;7397046;19;20021;-59
2023/08/10 03:54:18;;;;;;;10.27;4.07;;;;;;;14.66;75.41;102119.56;7396857;19;20019;-59
2023/08/10 03:56:45;;;;;;;11.43;4.05;;;;;;;14.70;75.21;102121.91;7394135;19;20037;-58
2023/08/10 03:59:13;;;;;;;8.77;4.20;;;;;;;14.63;75.73;102121.47;7397256;19;20023;-59
2023/08/10 04:01:41;;;;;;;8.90;3.97;;;;;;;14.76;75.28;102123.28;7396780;19;20014;-58
2023/08/10 04:04:08;;;;;;;11.35;3.97;;;;;;;14.74;75.14;102130.56;7396652;19;20077;-60
2023/08/10 04:06:36;;;;;;;10.07;4.10;;;;;;;14.74;75.27;102130.56;7394534;19;20128;-60
2023/08/10 04:09:04;;;;;;;7.43;3.75;;;;;;;14.72;75.09;102130.66;7391402;19;20014;-60
2023/08/10 04:11:32;;;;;;;8.20;4.35;;;;;;;14.66;75.29;102138.25;7396612;19;20068;-60
2023/08/10 04:14:00;;;;;;;10.98;3.95;;;;;;;14.51;75.83;102133.00;7396212;19;20049;-59
2023/08/10 04:16:28;;;;;;;11.63;4.72;;;;;;;14.62;75.27;102132.25;7395517;19;20073;-59
2023/08/10 04:18:56;;;;;;;9.25;4.00;;;;;;;14.65;75.13;102124.03;7395961;19;20022;-59
2023/08/10 04:21:24;;;;;;;11.23;4.43;;;;;;;14.60;75.11;102132.34;7396125;19;20018;-59
2023/08/10 04:23:51;;;;;;;9.88;3.85;;;;;;;14.47;75.82;102128.81;7395945;19;20040;-59
2023/08/10 04:26:19;;;;;;;10.05;4.75;;;;;;;14.45;75.77;102132.50;7394682;19;20047;-59
2023/08/10 04:28:46;;;;;;;10.55;4.50;;;;;;;14.42;75.86;102127.38;7393244;19;20030;-58
2023/08/10 04:31:14;;;;;;;10.68;4.47;;;;;;;14.39;75.87;102132.00;7394094;19;20014;-59
2023/08/10 04:33:42;;;;;;;11.70;4.90;;;;;;;14.54;75.56;102134.59;7395798;19;20480;-58
2023/08/10 04:36:09;;;;;;;13.02;5.00;;;;;;;14.54;75.71;102132.78;7392278;19;20026;-59
2023/08/10 04:38:36;;;;;;;10.57;4.80;;;;;;;14.53;75.77;102136.41;7395645;19;20018;-59
2023/08/10 04:41:04;;;;;;;9.10;3.97;;;;;;;14.61;75.76;102139.41;7395440;19;20022;-59
2023/08/10 04:43:31;;;;;;;9.70;4.50;;;;;;;14.78;75.03;102137.38;7393597;19;20080;-58
2023/08/10 04:45:58;;;;;;;13.43;4.90;;;;;;;14.87;74.88;102142.06;7394079;19;20022;-60
2023/08/10 04:48:26;;;;;;;11.55;4.68;;;;;;;14.97;74.51;102148.47;7394073;19;20010;-59
2023/08/10 04:50:53;;;;;;;12.48;5.03;;;;;;;15.04;74.23;102140.91;7394912;19;20039;-60
2023/08/10 04:53:21;;;;;;;11.43;4.45;;;;;;;15.03;74.44;102140.06;7395294;19;20035;-59
2023/08/10 04:55:50;;;;;;;12.45;4.82;;;;;;;14.98;74.68;102146.66;7393525;19;20018;-59
2023/08/10 04:58:18;;;;;;;11.70;4.28;;;;;;;15.03;74.63;102141.84;7394661;19;20035;-58
2023/08/10 05:00:45;;;;;;;10.15;4.32;;;;;;;15.00;74.63;102136.75;7394163;19;20039;-59
2023/08/10 05:03:12;;;;;;;15.95;5.45;;;;;;;15.02;74.57;102146.34;7394942;19;20022;-59
2023/08/10 05:05:40;;;;;;;14.52;5.30;;;;;;;14.99;74.71;102140.34;7394494;19;20021;-59
2023/08/10 05:08:08;;;;;;;13.45;4.85;;;;;;;14.97;75.08;102151.16;7393410;19;20039;-59
2023/08/10 05:10:35;;;;;;;15.25;5.32;;;;;;;14.90;75.15;102149.03;7392754;19;20476;-60
2023/08/10 05:13:04;;;;;;;15.20;6.18;;;;;;;14.69;76.00;102141.56;7394410;19;20022;-60
2023/08/10 05:15:31;;;;;;;11.70;5.30;;;;;;;14.70;76.04;102150.41;7392544;19;20015;-59
2023/08/10 05:17:58;;;;;;;14.00;5.60;;;;;;;14.71;76.15;102147.63;7393449;19;20022;-60
2023/08/10 05:20:26;;;;;;;14.30;5.70;;;;;;;14.79;75.71;102145.28;7393406;19;20016;-58
2023/08/10 05:22:53;;;;;;;16.00;5.47;;;;;;;14.85;75.58;102146.69;7393912;19;20047;-60
2023/08/10 05:25:20;;;;;;;13.95;4.95;;;;;;;14.87;75.48;102152.75;7393528;19;20043;-60
2023/08/10 05:27:48;;;;;;;16.10;5.53;;;;;;;14.96;75.45;102153.94;7389546;19;20030;-59
2023/08/10 05:30:17;;;;;;;12.00;5.05;;;;;;;14.98;75.10;102154.66;7393983;19;20018;-59
2023/08/10 05:32:44;;;;;;;16.60;5.75;;;;;;;15.06;74.96;102160.31;7393516;19;20019;-59
2023/08/10 05:35:14;;;;;;;16.10;5.70;;;;;;;14.99;75.06;102159.03;7393328;19;20015;-58
2023/08/10 05:37:42;;;;;;;11.93;5.32;;;;;;;14.99;75.08;102157.22;7391564;19;20086;-58
2023/08/10 05:40:11;;;;;;;12.93;4.63;;;;;;;15.03;74.81;102164.06;7393088;19;20043;-57
2023/08/10 05:42:40;;;;;;;13.10;4.70;;;;;;;15.01;75.06;102159.78;7394000;19;20096;-57
2023/08/10 05:45:08;;;;;;;20.00;5.88;;;;;;;15.07;74.81;102162.00;7392698;19;20018;-59
2023/08/10 05:47:36;;;;;;;15.20;5.45;;;;;;;15.01;74.98;102165.13;7390722;19;20082;-60
2023/08/10 05:50:04;;;;;;;14.00;5.40;;;;;;;15.07;74.80;102170.03;7392774;19;20018;-58
2023/08/10 05:52:31;;;;;;;13.68;4.65;;;;;;;15.12;74.67;102157.22;7393082;19;20018;-59
2023/08/10 05:54:59;;;;;;;12.98;5.00;;;;;;;15.21;74.39;102156.56;7393060;19;20085;-59
2023/08/10 05:57:26;;;;;;;12.70;5.00;;;;;;;15.23;74.45;102161.81;7390647;19;20025;-58
2023/08/10 05:59:53;;;;;;;13.88;4.90;;;;;;;15.28;74.23;102160.50;7392960;19;20517;-61
2023/08/10 06:02:22;;;;;;;12.23;4.97;;;;;;;15.36;74.08;102158.16;7392205;19;20039;-57
2023/08/10 06:04:49;;;;;;;13.18;4.57;;;;;;;15.33;74.23;102157.50;7392763;19;20018;-58
2023/08/10 06:07:16;;;;;;;16.50;5.80;;;;;;;15.36;74.15;102162.63;7390423;19;20044;-58
2023/08/10 06:09:44;;;;;;;13.23;5.13;;;;;;;15.33;74.00;102154.84;7391403;19;20029;-57
2023/08/10 06:12:12;;;;;;;16.25;4.80;;;;;;;15.35;73.90;102160.94;7392422;19;20015;-58
2023/08/10 06:14:39;;;;;;;15.02;5.50;;;;;;;15.46;73.87;102163.69;7392328;19;20039;-57
2023/08/10 06:17:07;;;;;;;16.95;5.28;;;;;;;15.51;73.57;102169.53;7391237;19;20023;-58
2023/08/10 06:19:34;;;;;;;15.73;5.57;;;;;;;15.55;73.44;102159.50;7392192;19;20097;-58
2023/08/10 06:22:02;;;;;;;14.65;5.13;;;;;;;15.64;73.19;102169.50;7391750;19;20014;-58
2023/08/10 06:24:31;;;;;;;20.48;5.22;;;;;;;15.58;73.04;102167.28;7392255;19;20372;-58
2023/08/10 06:26:59;;;;;;;14.93;4.90;;;;;;;15.64;73.05;102169.50;7390305;19;20349;-57
2023/08/10 06:29:27;;;;;;;16.00;5.25;;;;;;;15.66;72.88;102170.28;7388741;19;20015;-58
2023/08/10 06:31:54;;;;;;;15.48;5.43;;;;;;;15.71;72.92;102169.94;7389986;19;20014;-58
2023/08/10 06:34:22;;;;;;;10.85;4.05;;;;;;;15.75;72.82;102166.09;7391765;19;20042;-59
2023/08/10 06:36:52;;;;;;;13.32;4.88;;;;;;;15.80;72.87;102171.97;7390527;19;20063;-59
2023/08/10 06:39:19;;;;;;;14.43;4.63;;;;;;;15.84;72.62;102171.63;7391752;19;20394;-57
2023/08/10 06:41:46;;;;;;;14.05;4.55;;;;;;;15.92;72.37;102173.75;7391696;19;20488;-57
2023/08/10 06:44:14;;;;;;;10.60;4.20;;;;;;;15.95;72.47;102177.97;7391425;19;20480;-58
2023/08/10 06:46:41;;;;;;;13.82;3.50;;;;;;;15.95;72.14;102172.63;7390225;19;20023;-58
2023/08/10 06:49:08;;;;;;;10.43;3.20;;;;;;;16.00;71.89;102178.50;7390037;19;20021;-58
2023/08/10 06:51:36;;;;;;;13.07;3.53;;;;;;;16.05;71.78;102174.53;7391612;19;20028;-57
2023/08/10 06:54:03;;;;;;;8.43;3.30;;;;;;;16.10;71.66;102176.84;7390927;19;20488;-57
2023/08/10 06:56:31;;;;;;;13.38;3.47;;;;;;;16.14;71.44;102174.81;7389536;19;20026;-58
2023/08/10 06:58:58;;;;;;;12.55;3.10;;;;;;;16.17;71.15;102183.44;7391339;19;20032;-58
2023/08/10 07:01:28;;;;;;;12.23;3.00;;;;;;;16.17;70.68;102183.44;7391093;19;20014;-58
2023/08/10 07:03:56;;;;;;;8.57;2.97;;;;;;;16.19;70.06;102192.22;7390980;19;20014;-57
2023/08/10 07:06:23;;;;;;;10.60;2.72;;;;;;;16.26;69.44;102181.94;7389349;19;20053;-58
2023/08/10 07:08:52;;;;;;;8.45;2.47;;;;;;;16.34;69.58;102182.19;7390418;19;20356;-56
2023/08/10 07:11:20;;;;;;;10.88;2.42;;;;;;;16.32;69.01;102174.28;7390568;19;20093;-56
2023/08/10 07:13:51;;;;;;;10.63;2.10;;;;;;;16.38;68.29;102172.13;7391421;19;20022;-59
2023/08/10 07:16:19;;;;;;;11.40;2.17;;;;;;;16.40;67.88;102184.41;7388927;19;20014;-59
2023/08/10 07:18:47;;;;;;;8.60;2.30;;;;;;;16.45;67.01;102190.28;7391080;19;20095;-59
2023/08/10 07:21:14;;;;;;;8.18;1.98;;;;;;;16.48;67.17;102186.50;7390046;19;20031;-58
2023/08/10 07:23:42;;;;;;;7.57;2.08;;;;;;;16.50;67.04;102184.56;7390808;19;20026;-58
2023/08/10 07:26:10;;;;;;;7.43;1.80;;;;;;;16.57;66.76;102188.47;7389404;19;20025;-59
2023/08/10 07:28:37;;;;;;;12.07;2.70;;;;;;;16.64;65.11;102175.50;7389826;19;20357;-59
2023/08/10 07:31:04;;;;;;;10.60;2.08;;;;;;;16.64;63.92;102184.38;7390655;19;20424;-59
2023/08/10 07:33:32;;;;;;;8.95;1.55;;;;;;;16.62;62.99;102180.09;7390540;19;20026;-59
2023/08/10 07:35:59;;;;;;;8.93;1.67;;;;;;;16.69;62.56;102181.34;7389512;19;20015;-59
2023/08/10 07:38:27;;;;;;;8.32;2.15;;;;;;;16.76;62.26;102180.78;7389445;19;20026;-58
2023/08/10 07:40:54;;;;;;;7.65;1.90;;;;;;;16.81;61.34;102181.28;7389941;19;20026;-57
2023/08/10 07:43:22;;;;;;;13.05;1.92;;;;;;;16.90;61.30;102186.88;7394244;19;20014;-56
2023/08/10 07:45:49;;;;;;;6.47;1.70;;;;;;;16.89;61.56;102180.69;7394988;19;20027;-59
2023/08/10 07:48:16;;;;;;;9.20;2.28;;;;;;;16.92;61.79;102188.47;7396432;19;20022;-59
2023/08/10 07:50:44;;;;;;;7.97;2.42;;;;;;;16.89;61.71;102188.69;7397278;19;20010;-58
2023/08/10 07:53:12;;;;;;;12.02;2.33;;;;;;;16.90;61.76;102195.75;7397044;19;20476;-59
2023/08/10 07:55:39;;;;;;;10.68;2.25;;;;;;;16.99;61.29;102192.38;7396124;19;20014;-59
2023/08/10 07:58:07;;;;;;;8.38;1.80;;;;;;;17.03;61.20;102191.16;7396542;19;20022;-58
2023/08/10 08:00:38;;;;;;;8.82;1.92;;;;;;;17.02;61.73;102192.16;7395071;19;20345;-58
2023/08/10 08:03:05;;;;;;;9.43;2.40;;;;;;;17.03;61.62;102180.47;7394960;19;20378;-58
2023/08/10 08:05:37;;;;;;;8.80;1.88;;;;;;;17.20;60.95;102188.97;7395577;19;20018;-58
2023/08/10 08:08:06;;;;;;;6.78;1.90;;;;;;;17.26;60.43;102193.88;7394404;19;20089;-58
2023/08/10 08:10:34;;;;;;;6.93;1.50;;;;;;;17.35;60.69;102193.13;7393799;19;20491;-58
2023/08/10 08:13:06;;;;;;;10.80;1.75;;;;;;;17.34;60.39;102194.09;7396180;19;20025;-58
2023/08/10 08:15:34;;;;;;;8.07;1.60;;;;;;;17.32;59.96;102200.53;7395404;19;20026;-57
2023/08/10 08:18:56;;;;;;;10.45;2.17;;;;;;;17.36;59.09;102200.22;7397337;19;20081;-58
2023/08/10 08:21:25;;;;;;;7.57;1.65;;;;;;;17.42;59.09;102209.56;7391956;19;20093;-57
2023/08/10 08:23:54;;;;;;;5.07;1.20;;;;;;;17.45;59.19;102206.66;7395299;19;20095;-57
2023/08/10 08:26:26;;;;;;;8.07;1.58;;;;;;;17.51;59.63;102207.03;7394675;19;20015;-57
2023/08/10 08:28:54;;;;;;;7.03;1.85;;;;;;;17.50;59.27;102207.13;7395465;19;20492;-57
2023/08/10 08:31:21;;;;;;;9.18;1.80;;;;;;;17.48;58.80;102209.94;7395860;19;20018;-56
2023/08/10 08:33:50;;;;;;;8.27;1.70;;;;;;;17.50;58.37;102212.47;7395961;19;20015;-58
2023/08/10 08:36:18;;;;;;;6.75;1.60;;;;;;;17.49;57.64;102210.78;7393901;19;20086;-60
2023/08/10 08:38:45;;;;;;;8.23;1.35;;;;;;;17.57;57.46;102211.03;7395907;19;20367;-57
2023/08/10 08:41:16;;;;;;;5.20;1.20;;;;;;;17.71;56.95;102216.13;7396063;19;20027;-57
2023/08/10 08:43:44;;;;;;;4.53;1.40;;;;;;;17.77;57.11;102217.47;7394886;19;20039;-57
2023/08/10 08:46:13;;;;;;;8.00;1.75;;;;;;;17.82;57.10;102223.34;7394267;19;20091;-57
2023/08/10 08:48:41;;;;;;;9.50;1.77;;;;;;;17.77;57.44;102215.66;7395162;19;20094;-57
2023/08/10 08:51:08;;;;;;;6.03;1.70;;;;;;;17.75;58.03;102214.94;7395247;19;20035;-57
2023/08/10 08:53:37;;;;;;;6.95;1.50;;;;;;;17.88;57.66;102211.25;7393383;19;20019;-57
2023/08/10 08:56:06;;;;;;;4.22;1.40;;;;;;;17.94;57.14;102216.97;7393238;19;20014;-58
2023/08/10 08:58:33;;;;;;;9.52;1.60;;;;;;;17.97;57.31;102206.00;7392737;19;20381;-57
2023/08/10 09:01:03;;;;;;;5.97;1.50;;;;;;;18.01;57.30;102211.97;7394890;19;20052;-57
2023/08/10 09:03:31;;;;;;;8.48;1.48;;;;;;;17.97;57.53;102215.84;7394549;19;20029;-58
2023/08/10 09:06:00;;;;;;;9.50;1.70;;;;;;;17.87;57.45;102210.41;7392187;19;20014;-57
2023/08/10 09:08:28;;;;;;;5.63;1.67;;;;;;;17.91;56.98;102213.69;7394764;19;20015;-59
2023/08/10 09:10:58;;;;;;;6.05;1.80;;;;;;;17.87;57.12;102212.25;7392441;19;20043;-59
2023/08/10 09:13:26;;;;;;;7.22;1.63;;;;;;;17.89;56.79;102208.44;7394170;19;20097;-59
2023/08/10 09:16:11;;;;;;;4.88;1.13;;;;;;;17.98;56.55;102209.53;7393063;19;20025;-58
2023/08/10 09:18:42;;;;;;;5.65;1.58;;;;;;;18.06;56.29;102211.59;7394447;19;20029;-56
2023/08/10 09:21:18;;;;;;;8.90;1.80;;;;;;;18.16;56.30;102210.72;7394306;19;20018;-56
2023/08/10 09:23:47;;;;;;;5.55;1.52;;;;;;;17.98;57.15;102209.53;7394206;19;20018;-57
2023/08/10 09:26:19;;;;;;;7.20;1.63;;;;;;;17.90;56.93;102214.69;7392185;19;20047;-58
2023/08/10 09:28:48;;;;;;;4.45;1.20;;;;;;;17.94;56.26;102213.44;7393401;19;20019;-55
2023/08/10 09:31:23;;;;;;;6.13;1.40;;;;;;;17.99;55.01;102211.22;7393640;19;20059;-56
2023/08/10 09:33:58;;;;;;;4.40;1.25;;;;;;;18.08;54.65;102214.97;7393679;19;20022;-54
2023/08/10 09:36:27;;;;;;;3.92;1.20;;;;;;;18.17;54.57;102209.72;7391717;19;20085;-56
2023/08/10 09:38:55;;;;;;;8.07;1.55;;;;;;;18.27;53.95;102205.28;7393870;19;20040;-56
2023/08/10 09:41:28;;;;;;;4.60;1.40;;;;;;;18.31;53.71;102211.25;7393643;19;20006;-56
2023/08/10 09:43:55;;;;;;;6.18;1.70;;;;;;;18.26;54.05;102206.28;7393745;19;20026;-55
2023/08/10 09:46:23;;;;;;;5.03;1.40;;;;;;;18.19;54.78;102210.44;7391836;19;20102;-56
2023/08/10 09:48:52;;;;;;;6.93;1.50;;;;;;;18.33;54.34;102208.44;7393329;19;20010;-58
2023/08/10 09:51:19;;;;;;;6.85;1.60;;;;;;;18.58;54.23;102204.53;7391604;19;20353;-58
2023/08/10 09:53:47;;;;;;;7.97;1.33;;;;;;;18.85;53.75;102199.56;7392447;19;20021;-58
2023/08/10 09:56:14;;;;;;;7.97;2.17;;;;;;;19.08;53.46;102199.38;7391770;19;20022;-56
2023/08/10 09:58:42;;;;;;;10.40;2.40;;;;;;;19.17;53.54;102209.34;7392516;19;20018;-57
2023/08/10 10:01:10;;;;;;;8.68;1.92;;;;;;;19.18;53.73;102213.72;7392878;19;20031;-56
2023/08/10 10:03:43;;;;;;;7.82;1.25;;;;;;;18.97;54.57;102206.56;7391790;19;20044;-55
2023/08/10 10:06:14;;;;;;;8.20;1.40;;;;;;;18.85;55.25;102213.00;7391434;19;20476;-57
2023/08/10 10:08:54;;;;;;;4.75;1.30;;;;;;;18.68;56.24;102213.53;7392989;19;20083;-58
2023/08/10 10:11:23;;;;;;;5.80;1.20;;;;;;;18.62;56.39;102208.66;7392758;19;20433;-57
2023/08/10 10:13:51;;;;;;;6.00;1.42;;;;;;;18.44;56.43;102211.94;7390590;19;20024;-55
2023/08/10 10:16:19;;;;;;;7.55;1.77;;;;;;;18.42;56.27;102213.88;7391396;19;20070;-59
2023/08/10 10:18:47;;;;;;;7.10;1.67;;;;;;;18.56;55.80;102214.56;7391495;19;20011;-59
2023/08/10 10:21:15;;;;;;;9.45;1.80;;;;;;;18.70;54.53;102216.94;7390951;19;20019;-61
2023/08/10 10:23:43;;;;;;;5.88;1.60;;;;;;;18.83;53.41;102217.63;7393027;19;20073;-59
2023/08/10 10:26:10;;;;;;;7.95;2.03;;;;;;;18.88;52.58;102212.69;7390594;19;20018;-58
2023/08/10 10:28:39;;;;;;;8.98;2.40;;;;;;;19.02;52.12;102202.63;7392180;19;20010;-60
2023/08/10 10:31:09;;;;;;;7.28;1.58;;;;;;;19.15;52.00;102203.25;7390301;19;20010;-59
2023/08/10 10:33:55;;;;;;;7.95;1.50;;;;;;;19.21;51.69;102214.31;7391974;19;20022;-59
2023/08/10 10:36:23;;;;;;;6.80;1.92;;;;;;;19.27;52.36;102206.69;7390479;19;20048;-59
2023/08/10 10:39:04;;;;;;;8.32;1.42;;;;;;;19.17;51.54;102207.50;7391164;19;20018;-61
2023/08/10 10:41:36;;;;;;;5.45;1.30;;;;;;;18.95;52.59;102196.94;7389658;19;20019;-59
2023/08/10 10:44:04;;;;;;;4.63;1.30;;;;;;;18.92;52.76;102198.03;7391307;19;20023;-60
2023/08/10 10:46:32;;;;;;;5.88;1.50;;;;;;;19.04;53.13;102206.91;7390078;19;20018;-59
2023/08/10 10:49:03;;;;;;;5.47;1.45;;;;;;;19.09;52.77;102193.91;7391698;19;20123;-59
2023/08/10 10:51:31;;;;;;;5.22;1.52;;;;;;;18.87;52.74;102192.22;7389543;19;20018;-60
2023/08/10 10:53:59;;;;;;;6.88;1.42;;;;;;;18.80;52.99;102198.25;7391412;19;20026;-59
2023/08/10 10:56:26;;;;;;;4.78;1.20;;;;;;;18.70;53.26;102191.00;7387569;19;20028;-59
2023/08/10 10:58:53;;;;;;;7.03;1.70;;;;;;;18.87;53.19;102183.31;7391143;19;20047;-59
2023/08/10 11:01:22;;;;;;;5.32;1.45;;;;;;;18.97;52.89;102182.41;7389322;19;20003;-58
2023/08/10 11:03:56;;;;;;;8.25;1.77;;;;;;;19.14;52.24;102185.44;7394161;19;20014;-58
2023/08/10 11:06:24;;;;;;;10.02;1.55;;;;;;;19.16;52.70;102178.13;7389983;19;20018;-58
2023/08/10 11:08:54;;;;;;;5.90;1.25;;;;;;;19.39;51.63;102181.47;7390090;19;20010;-59
2023/08/10 11:11:22;;;;;;;4.00;1.27;;;;;;;19.59;50.97;102190.44;7389134;19;20018;-59
2023/08/10 11:13:52;;;;;;;7.00;1.48;;;;;;;19.75;50.71;102188.09;7388505;19;20022;-59
2023/08/10 11:16:21;;;;;;;5.65;1.40;;;;;;;19.76;51.36;102186.25;7389448;19;20018;-58
2023/08/10 11:18:50;;;;;;;8.20;1.77;;;;;;;19.75;51.55;102185.41;7396896;19;20011;-59
2023/08/10 11:21:20;;;;;;;8.05;1.73;;;;;;;19.87;49.75;102191.53;7397786;19;20026;-59
2023/08/10 11:23:48;;;;;;;5.20;1.27;;;;;;;19.88;48.98;102191.41;7397838;19;20065;-59
2023/08/10 11:26:16;;;;;;;8.35;1.33;;;;;;;19.72;48.99;102175.78;7396106;19;20018;-59
2023/08/10 11:28:43;;;;;;;6.03;1.25;;;;;;;19.68;48.86;102176.19;7397600;19;20022;-59